Time;durP1;ratioP1;P1;durP2;ratioP2;P2;SDS_P1;SDS_P2;PMS_P1;PMS_P2;Temp;Humidity;BMP_temperature;BMP_pressure;BME280_temperature;BME280_humidity;BME280_pressure;Samples;Min_cycle;Max_cycle;Signal;HPM_P1;HPM_P2
2021/01/05 00:02:00;;;;;;;11.77;8.40;;;0.60;99.90;;;;;;5076497;28;20508;-84
2021/01/05 00:04:33;;;;;;;13.57;10.67;;;0.60;99.90;;;;;;5075448;28;20953;-85
2021/01/05 00:07:00;;;;;;;12.50;9.43;;;0.60;99.90;;;;;;5076162;28;20477;-84
2021/01/05 00:09:26;;;;;;;31.87;22.70;;;0.60;99.90;;;;;;5076566;28;20443;-86
2021/01/05 00:11:58;;;;;;;16.03;11.40;;;0.60;99.90;;;;;;5072447;28;20991;-84
2021/01/05 00:14:24;;;;;;;13.30;8.57;;;0.60;99.90;;;;;;5076321;28;20455;-84
2021/01/05 00:16:51;;;;;;;12.43;8.63;;;0.70;99.90;;;;;;5076333;28;20442;-84
2021/01/05 00:19:18;;;;;;;16.83;9.17;;;0.70;99.90;;;;;;5075011;28;20448;-83
2021/01/05 00:21:44;;;;;;;13.20;8.77;;;0.70;99.90;;;;;;5073013;28;20443;-85
2021/01/05 00:24:11;;;;;;;15.47;9.27;;;0.70;99.90;;;;;;5076146;28;20514;-84
2021/01/05 00:26:38;;;;;;;15.20;9.23;;;0.60;99.90;;;;;;5072990;28;20480;-83
2021/01/05 00:29:06;;;;;;;15.00;9.37;;;0.60;99.90;;;;;;5076166;28;20500;-84
2021/01/05 00:31:32;;;;;;;14.97;9.90;;;0.60;99.90;;;;;;5076032;28;20450;-85
2021/01/05 00:33:58;;;;;;;16.63;9.43;;;0.60;99.90;;;;;;5074983;28;20438;-85
2021/01/05 00:36:25;;;;;;;14.63;9.17;;;0.60;99.90;;;;;;5076035;28;20449;-86
2021/01/05 00:38:51;;;;;;;13.63;9.63;;;0.60;99.90;;;;;;5075791;28;20477;-85
2021/01/05 00:41:19;;;;;;;16.73;10.07;;;0.70;99.90;;;;;;5075810;28;20866;-86
2021/01/05 00:43:46;;;;;;;16.07;10.87;;;0.60;99.90;;;;;;5070255;28;20468;-84
2021/01/05 00:46:13;;;;;;;18.07;10.20;;;0.60;99.90;;;;;;5075882;28;20449;-84
2021/01/05 00:48:41;;;;;;;19.03;11.47;;;0.60;99.90;;;;;;5074648;28;20459;-83
2021/01/05 00:51:08;;;;;;;18.90;9.80;;;0.40;99.90;;;;;;5072656;28;20881;-85
2021/01/05 00:53:34;;;;;;;17.40;11.07;;;0.50;99.90;;;;;;5072476;28;20452;-85
2021/01/05 00:56:00;;;;;;;19.23;12.27;;;0.50;99.90;;;;;;5075569;28;20450;-85
2021/01/05 00:58:26;;;;;;;18.67;11.97;;;0.50;99.90;;;;;;5075664;28;20447;-86
2021/01/05 01:00:53;;;;;;;16.20;9.80;;;0.50;99.90;;;;;;5075490;28;20498;-84
2021/01/05 01:03:21;;;;;;;17.63;10.80;;;0.50;99.90;;;;;;5074200;28;20444;-84
2021/01/05 01:05:48;;;;;;;18.23;11.40;;;0.50;99.90;;;;;;5075513;28;20989;-83
2021/01/05 01:08:16;;;;;;;18.67;10.57;;;0.50;99.90;;;;;;5075317;28;20452;-84
2021/01/05 01:10:43;;;;;;;14.90;9.67;;;;;;;;;;5075621;28;20511;-84
2021/01/05 01:13:10;;;;;;;19.83;12.30;;;0.50;99.90;;;;;;5075369;28;20457;-85
2021/01/05 01:15:37;;;;;;;19.60;11.83;;;0.50;99.90;;;;;;5075275;28;20452;-83
2021/01/05 01:18:04;;;;;;;19.60;11.50;;;0.40;99.90;;;;;;5075127;28;20822;-83
2021/01/05 01:20:31;;;;;;;16.70;11.00;;;0.50;99.90;;;;;;5074279;28;20494;-83
2021/01/05 01:22:58;;;;;;;16.73;10.60;;;0.40;99.90;;;;;;5075350;28;20663;-86
2021/01/05 01:25:24;;;;;;;17.17;10.70;;;0.50;99.90;;;;;;5075074;28;20449;-84
2021/01/05 01:27:51;;;;;;;18.33;10.43;;;0.50;99.90;;;;;;5074988;28;20499;-84
2021/01/05 01:30:19;;;;;;;14.33;9.07;;;0.60;99.90;;;;;;5075058;28;20453;-84
2021/01/05 01:32:46;;;;;;;17.90;11.07;;;0.50;99.90;;;;;;5074881;28;20458;-83
2021/01/05 01:35:14;;;;;;;20.93;12.33;;;0.50;99.90;;;;;;5073826;28;20445;-84
2021/01/05 01:37:41;;;;;;;18.73;10.97;;;0.70;99.90;;;;;;5074777;28;21040;-84
2021/01/05 01:40:10;;;;;;;19.77;11.23;;;0.60;99.90;;;;;;5074725;28;20492;-85
2021/01/05 01:42:36;;;;;;;20.80;11.77;;;0.60;99.90;;;;;;5074829;28;20452;-85
2021/01/05 01:45:05;;;;;;;19.43;11.90;;;0.50;99.90;;;;;;5074784;28;20501;-83
2021/01/05 01:47:34;;;;;;;21.93;12.43;;;0.60;99.90;;;;;;5074661;28;20952;-83
2021/01/05 01:50:05;;;;;;;19.90;11.73;;;0.60;99.90;;;;;;5073296;28;20460;-86
2021/01/05 01:52:54;;;;;;;18.73;12.00;;;0.60;99.90;;;;;;5074482;28;20492;-83
2021/01/05 01:55:37;;;;;;;20.47;12.30;;;0.60;99.90;;;;;;5074502;28;20464;-85
2021/01/05 01:58:32;;;;;;;17.97;11.20;;;0.60;99.90;;;;;;5071455;28;20930;-84
2021/01/05 02:01:11;;;;;;;16.43;10.77;;;0.60;99.90;;;;;;5069029;28;20554;-83
2021/01/05 02:04:18;;;;;;;16.97;11.67;;;0.60;99.90;;;;;;5068906;28;20490;-86
2021/01/05 02:07:36;;;;;;;19.30;11.60;;;0.60;99.90;;;;;;5074303;28;20456;-85
2021/01/05 02:10:27;;;;;;;19.10;11.60;;;0.60;99.90;;;;;;4973396;28;20871;-85
2021/01/05 02:13:08;;;;;;;21.00;12.40;;;0.70;99.90;;;;;;4973503;28;20457;-83
2021/01/05 02:15:43;;;;;;;18.30;12.20;;;0.70;99.90;;;;;;5044005;28;20449;-87
2021/01/05 02:18:24;;;;;;;19.60;12.30;;;0.60;99.90;;;;;;5072975;28;20776;-83
2021/01/05 02:20:54;;;;;;;17.67;10.93;;;0.60;99.90;;;;;;5073949;28;20834;-86
2021/01/05 02:23:44;;;;;;;16.87;11.60;;;0.40;99.90;;;;;;5073866;28;20519;-85
2021/01/05 02:26:16;;;;;;;20.10;10.70;;;0.60;99.90;;;;;;5073946;28;20459;-83
2021/01/05 02:28:46;;;;;;;17.83;11.80;;;0.60;99.90;;;;;;5066242;28;20794;-84
2021/01/05 02:31:24;;;;;;;17.60;11.20;;;0.60;99.90;;;;;;5073777;28;20558;-84
2021/01/05 02:33:57;;;;;;;17.13;10.90;;;0.60;99.90;;;;;;5072341;28;20446;-83
2021/01/05 02:36:47;;;;;;;21.13;11.00;;;0.80;99.90;;;;;;5073667;28;20447;-83
2021/01/05 02:39:39;;;;;;;16.87;10.70;;;0.60;99.90;;;;;;5073745;28;20457;-83
2021/01/05 02:42:28;;;;;;;17.43;9.87;;;0.60;99.90;;;;;;5073447;28;20474;-86
2021/01/05 02:45:02;;;;;;;17.60;11.20;;;0.70;99.90;;;;;;5073515;28;20445;-82
2021/01/05 02:47:46;;;;;;;13.67;9.20;;;0.70;99.90;;;;;;5070597;28;20481;-83
2021/01/05 02:50:27;;;;;;;19.43;10.27;;;0.70;99.90;;;;;;5072213;28;20456;-84
2021/01/05 02:53:32;;;;;;;15.60;9.60;;;0.80;99.90;;;;;;5073465;28;20472;-84
2021/01/05 02:56:38;;;;;;;19.17;10.00;;;0.70;99.90;;;;;;5073370;28;20850;-84
2021/01/05 02:59:39;;;;;;;15.40;10.53;;;0.70;99.90;;;;;;5073284;28;20863;-83
2021/01/05 03:02:33;;;;;;;19.43;11.27;;;0.80;99.90;;;;;;5073453;28;20460;-83
2021/01/05 03:04:59;;;;;;;14.80;9.37;;;0.80;99.90;;;;;;5071809;28;20458;-83
2021/01/05 03:07:28;;;;;;;18.20;9.90;;;0.80;99.90;;;;;;5073336;28;20446;-83
2021/01/05 03:10:24;;;;;;;18.20;10.93;;;0.70;99.90;;;;;;5073164;28;20453;-83
2021/01/05 03:13:24;;;;;;;18.43;10.43;;;0.80;99.90;;;;;;5066380;28;20518;-83
2021/01/05 03:15:57;;;;;;;18.20;10.60;;;0.80;99.90;;;;;;5051140;28;20453;-83
2021/01/05 03:18:34;;;;;;;14.67;9.93;;;0.70;99.90;;;;;;5071911;28;20518;-86
2021/01/05 03:21:04;;;;;;;17.90;10.67;;;0.80;99.90;;;;;;5072959;28;20844;-83
2021/01/05 03:23:32;;;;;;;17.03;11.07;;;0.70;99.90;;;;;;5072964;28;20456;-83
2021/01/05 03:26:04;;;;;;;21.03;11.50;;;0.80;99.90;;;;;;5072836;28;20453;-86
2021/01/05 03:28:31;;;;;;;17.90;11.40;;;;;;;;;;5072228;28;20448;-83
2021/01/05 03:31:04;;;;;;;24.83;11.77;;;0.70;99.90;;;;;;5072980;28;20972;-84
2021/01/05 03:33:30;;;;;;;18.10;10.77;;;0.70;99.90;;;;;;5071658;28;20539;-86
2021/01/05 03:35:56;;;;;;;18.80;11.90;;;0.70;99.90;;;;;;5072779;28;20445;-84
2021/01/05 03:38:23;;;;;;;18.60;10.70;;;0.70;99.90;;;;;;5072707;28;20449;-84
2021/01/05 03:40:49;;;;;;;18.13;11.73;;;0.70;99.90;;;;;;5072789;28;20504;-84
2021/01/05 03:43:15;;;;;;;22.47;12.67;;;0.90;99.90;;;;;;5072842;28;20821;-84
2021/01/05 03:45:41;;;;;;;25.93;14.23;;;0.80;99.90;;;;;;5072873;28;20463;-85
2021/01/05 03:48:09;;;;;;;24.07;14.17;;;0.80;99.90;;;;;;5071935;28;20450;-82
2021/01/05 03:50:35;;;;;;;22.33;13.07;;;0.80;99.90;;;;;;5072495;28;20456;-83
2021/01/05 03:53:01;;;;;;;20.47;12.67;;;0.70;99.90;;;;;;5072517;28;20453;-86
2021/01/05 03:55:28;;;;;;;22.30;13.30;;;0.80;99.90;;;;;;5072642;28;20453;-86
2021/01/05 03:57:54;;;;;;;21.27;12.93;;;0.80;99.90;;;;;;5072655;28;21012;-83
2021/01/05 04:00:25;;;;;;;29.73;14.20;;;0.70;99.90;;;;;;5072565;28;20487;-85
2021/01/05 04:02:53;;;;;;;28.40;15.90;;;0.70;99.90;;;;;;5072603;28;20534;-83
2021/01/05 04:05:21;;;;;;;30.23;16.00;;;0.70;99.90;;;;;;5071273;28;20460;-83
2021/01/05 04:07:47;;;;;;;27.57;15.63;;;0.70;99.90;;;;;;5072570;28;20840;-84
2021/01/05 04:10:14;;;;;;;26.87;16.10;;;0.80;99.90;;;;;;5072837;28;20803;-86
2021/01/05 04:12:40;;;;;;;29.20;15.60;;;0.70;99.90;;;;;;5072495;28;20453;-84
2021/01/05 04:15:09;;;;;;;32.57;15.87;;;0.70;99.90;;;;;;5072464;28;20522;-84
2021/01/05 04:17:35;;;;;;;25.70;15.13;;;0.70;99.90;;;;;;5072487;28;20456;-86
2021/01/05 04:20:03;;;;;;;33.63;16.60;;;0.80;99.90;;;;;;5071009;28;21062;-83
2021/01/05 04:22:30;;;;;;;31.13;17.13;;;0.80;99.90;;;;;;5072462;28;20570;-83
2021/01/05 04:24:56;;;;;;;32.93;16.63;;;0.80;99.90;;;;;;5072348;28;20811;-83
2021/01/05 04:27:22;;;;;;;28.30;16.10;;;0.80;99.90;;;;;;5072487;28;20448;-83
2021/01/05 04:29:48;;;;;;;30.80;15.77;;;0.80;99.90;;;;;;5072366;28;20447;-85
2021/01/05 04:32:15;;;;;;;34.27;17.77;;;0.80;99.90;;;;;;5072349;28;20453;-83
2021/01/05 04:34:41;;;;;;;28.90;16.97;;;0.90;99.90;;;;;;5066770;28;20456;-83
2021/01/05 04:37:07;;;;;;;28.43;15.27;;;0.90;99.90;;;;;;5072258;28;20469;-85
2021/01/05 04:39:34;;;;;;;30.03;16.13;;;0.90;99.90;;;;;;5074320;28;20456;-84
2021/01/05 04:42:09;;;;;;;25.93;15.67;;;0.90;99.90;;;;;;5076031;28;20454;-83
2021/01/05 04:44:47;;;;;;;30.23;16.50;;;0.80;99.90;;;;;;5075941;28;20444;-83
2021/01/05 04:47:23;;;;;;;29.47;16.10;;;0.80;99.90;;;;;;5075667;28;20445;-83
2021/01/05 04:50:14;;;;;;;27.37;15.77;;;1.00;99.90;;;;;;5070399;28;20514;-84
2021/01/05 04:52:49;;;;;;;25.47;15.47;;;0.90;99.90;;;;;;5075684;28;20494;-84
2021/01/05 04:55:29;;;;;;;26.03;14.00;;;0.90;99.90;;;;;;5072691;28;20451;-83
2021/01/05 04:58:06;;;;;;;25.90;14.93;;;0.90;99.90;;;;;;5075608;28;20448;-84
2021/01/05 05:00:35;;;;;;;24.00;13.93;;;0.80;99.90;;;;;;5075451;28;20481;-83
2021/01/05 05:03:07;;;;;;;25.80;15.20;;;0.80;99.90;;;;;;5071170;28;20869;-86
2021/01/05 05:05:52;;;;;;;28.73;15.93;;;0.80;99.90;;;;;;5075083;28;20443;-84
2021/01/05 05:08:46;;;;;;;27.40;16.40;;;0.90;99.90;;;;;;5075350;28;20455;-86
2021/01/05 05:11:17;;;;;;;31.90;16.97;;;0.90;99.90;;;;;;5054928;28;20464;-83
2021/01/05 05:13:53;;;;;;;27.17;16.20;;;0.90;99.90;;;;;;5075424;28;20438;-85
2021/01/05 05:16:48;;;;;;;32.37;17.20;;;0.90;99.90;;;;;;5075267;28;20448;-83
2021/01/05 05:19:29;;;;;;;27.60;17.10;;;1.00;99.90;;;;;;5068776;28;20452;-83
2021/01/05 05:22:01;;;;;;;32.80;17.60;;;1.00;99.90;;;;;;5069688;28;20489;-83
2021/01/05 05:24:37;;;;;;;27.97;17.27;;;1.00;99.90;;;;;;5075130;28;20451;-86
2021/01/05 05:27:16;;;;;;;30.37;16.83;;;1.00;99.90;;;;;;5074953;28;20455;-85
2021/01/05 05:29:46;;;;;;;33.10;16.10;;;0.90;99.90;;;;;;5074998;28;20963;-86
2021/01/05 05:32:26;;;;;;;29.27;16.60;;;1.00;99.90;;;;;;5074934;28;20449;-83
2021/01/05 05:35:33;;;;;;;28.97;15.80;;;1.00;99.90;;;;;;5073746;28;20456;-83
2021/01/05 05:38:03;;;;;;;28.20;15.27;;;1.20;99.90;;;;;;5074908;28;20443;-83
2021/01/05 05:40:45;;;;;;;28.97;17.40;;;1.10;99.90;;;;;;5074953;28;20498;-83
2021/01/05 05:43:29;;;;;;;29.50;17.90;;;1.10;99.90;;;;;;5069339;28;20450;-86
2021/01/05 05:46:00;;;;;;;30.33;16.87;;;0.90;99.90;;;;;;5074715;28;20934;-84
2021/01/05 05:48:37;;;;;;;28.83;16.53;;;0.90;99.90;;;;;;5073432;28;20514;-86
2021/01/05 05:51:08;;;;;;;32.20;17.57;;;0.90;99.90;;;;;;5073615;28;20481;-85
2021/01/05 05:53:37;;;;;;;30.33;16.10;;;0.90;99.90;;;;;;5074588;28;20475;-84
2021/01/05 05:56:08;;;;;;;31.97;16.40;;;0.90;99.90;;;;;;5074410;28;20452;-83
2021/01/05 05:58:38;;;;;;;30.67;16.23;;;0.80;99.90;;;;;;5074495;28;20876;-86
2021/01/05 06:01:08;;;;;;;34.70;17.90;;;0.80;99.90;;;;;;5074278;28;20492;-85
2021/01/05 06:03:35;;;;;;;27.80;16.87;;;0.90;99.90;;;;;;5073045;28;20941;-84
2021/01/05 06:06:01;;;;;;;25.43;15.97;;;0.80;99.90;;;;;;5074322;28;20457;-83
2021/01/05 06:08:27;;;;;;;27.00;17.20;;;0.80;99.90;;;;;;5074363;28;20821;-86
2021/01/05 06:10:53;;;;;;;29.60;17.27;;;0.80;99.90;;;;;;5074350;28;20446;-83
2021/01/05 06:13:20;;;;;;;28.53;16.00;;;0.90;99.90;;;;;;5074252;28;20452;-85
2021/01/05 06:15:47;;;;;;;30.83;16.90;;;0.80;99.90;;;;;;5074162;28;20514;-83
2021/01/05 06:18:16;;;;;;;27.33;15.60;;;0.90;99.90;;;;;;5072882;28;20453;-84
2021/01/05 06:20:42;;;;;;;27.70;16.40;;;0.90;99.90;;;;;;5073976;28;20483;-83
2021/01/05 06:23:09;;;;;;;33.57;18.07;;;1.00;99.90;;;;;;5073971;28;20906;-83
2021/01/05 06:25:36;;;;;;;31.40;16.03;;;1.10;99.90;;;;;;5073976;28;20450;-85
2021/01/05 06:28:02;;;;;;;30.57;17.27;;;0.90;99.90;;;;;;5073990;28;20878;-83
2021/01/05 06:30:28;;;;;;;34.90;18.53;;;0.90;99.90;;;;;;5073891;28;20445;-83
2021/01/05 06:32:55;;;;;;;30.30;16.40;;;1.40;99.90;;;;;;5073840;28;20815;-86
2021/01/05 06:35:23;;;;;;;31.57;15.60;;;0.90;99.90;;;;;;5072538;28;20465;-83
2021/01/05 06:37:50;;;;;;;25.30;13.20;;;1.00;99.90;;;;;;5070726;28;20453;-85
2021/01/05 06:40:19;;;;;;;27.20;16.77;;;1.00;99.90;;;;;;5073596;28;20492;-83
2021/01/05 06:42:46;;;;;;;28.17;17.70;;;1.00;99.90;;;;;;5073674;28;20446;-85
2021/01/05 06:45:17;;;;;;;28.63;16.77;;;0.90;99.90;;;;;;5073638;28;20963;-83
2021/01/05 06:47:44;;;;;;;28.33;15.60;;;0.90;99.90;;;;;;5070970;28;20446;-85
2021/01/05 06:50:13;;;;;;;33.23;18.40;;;1.00;99.90;;;;;;5072768;28;20443;-82
2021/01/05 06:52:39;;;;;;;33.53;17.43;;;1.00;99.90;;;;;;5073795;28;20487;-83
2021/01/05 06:55:07;;;;;;;29.03;16.73;;;0.90;99.90;;;;;;5071539;28;20448;-83
2021/01/05 06:57:33;;;;;;;31.20;17.03;;;0.90;99.90;;;;;;5073245;28;20454;-83
2021/01/05 06:59:59;;;;;;;29.63;17.57;;;0.90;99.90;;;;;;5073136;28;20460;-87
2021/01/05 07:02:26;;;;;;;39.50;19.03;;;0.90;99.90;;;;;;5073286;28;20458;-85
2021/01/05 07:04:52;;;;;;;32.30;17.80;;;1.00;99.90;;;;;;5066752;28;20456;-83
2021/01/05 07:07:19;;;;;;;41.87;19.87;;;0.90;99.90;;;;;;5073225;28;20449;-85
2021/01/05 07:09:45;;;;;;;37.67;18.77;;;1.00;99.90;;;;;;5073154;28;20453;-83
2021/01/05 07:12:11;;;;;;;34.13;17.43;;;1.00;99.90;;;;;;5073132;28;20457;-83
2021/01/05 07:14:38;;;;;;;33.40;18.40;;;1.00;99.90;;;;;;5073195;28;20517;-84
2021/01/05 07:17:04;;;;;;;38.03;19.03;;;1.00;99.90;;;;;;5073194;28;20470;-83
2021/01/05 07:19:30;;;;;;;33.30;18.17;;;0.90;99.90;;;;;;5071734;28;20456;-85
2021/01/05 07:21:56;;;;;;;33.97;17.83;;;0.90;99.90;;;;;;5072847;28;20492;-83
2021/01/05 07:24:23;;;;;;;30.47;15.67;;;0.90;99.90;;;;;;5072914;28;20538;-83
2021/01/05 07:26:51;;;;;;;32.93;18.10;;;0.90;99.90;;;;;;5072971;28;20453;-83
2021/01/05 07:29:18;;;;;;;35.07;19.80;;;0.90;99.90;;;;;;5072916;28;20446;-83
2021/01/05 07:31:46;;;;;;;34.00;18.67;;;1.00;99.90;;;;;;5072207;28;20444;-83
2021/01/05 07:34:12;;;;;;;32.00;17.93;;;1.10;99.90;;;;;;5051312;28;20974;-82
2021/01/05 07:36:42;;;;;;;36.53;19.70;;;1.50;99.90;;;;;;5049822;28;20448;-84
2021/01/05 07:39:16;;;;;;;33.13;17.43;;;0.90;99.90;;;;;;5053004;28;20468;-82
2021/01/05 07:41:43;;;;;;;36.60;19.67;;;1.10;99.90;;;;;;5052762;28;20490;-82
2021/01/05 07:44:09;;;;;;;34.87;16.90;;;1.00;99.90;;;;;;5052686;28;20464;-82
2021/01/05 07:46:35;;;;;;;37.00;19.57;;;1.00;99.90;;;;;;5052580;28;20818;-82
2021/01/05 07:49:01;;;;;;;36.10;18.97;;;1.00;99.90;;;;;;5051537;28;20457;-82
2021/01/05 07:51:27;;;;;;;36.27;19.27;;;1.00;99.90;;;;;;5046762;28;20486;-86
2021/01/05 07:53:54;;;;;;;29.10;16.30;;;1.00;99.90;;;;;;5052561;28;20457;-83
2021/01/05 07:56:20;;;;;;;34.13;18.87;;;1.00;99.90;;;;;;5052601;28;20452;-83
2021/01/05 07:58:47;;;;;;;37.03;19.33;;;1.00;99.90;;;;;;5052662;28;20808;-85
2021/01/05 08:01:13;;;;;;;33.80;17.90;;;1.00;99.90;;;;;;5052303;28;21019;-83
2021/01/05 08:03:39;;;;;;;36.00;18.07;;;1.00;99.90;;;;;;5051290;28;20461;-84
2021/01/05 08:06:09;;;;;;;35.53;18.80;;;1.00;99.90;;;;;;5052615;28;20455;-84
2021/01/05 08:08:36;;;;;;;30.37;17.50;;;1.00;99.90;;;;;;5052525;28;20450;-85
2021/01/05 08:11:02;;;;;;;29.47;16.53;;;1.20;99.90;;;;;;5052399;28;20449;-84
2021/01/05 08:13:28;;;;;;;27.80;15.67;;;1.00;99.90;;;;;;5052868;28;20462;-84
2021/01/05 08:15:55;;;;;;;33.37;16.97;;;1.10;99.90;;;;;;5056326;28;20451;-85
2021/01/05 08:18:22;;;;;;;27.63;16.03;;;1.10;99.90;;;;;;5055304;28;20446;-85
2021/01/05 08:20:48;;;;;;;32.03;17.13;;;1.10;99.90;;;;;;5056475;28;21002;-83
2021/01/05 08:23:18;;;;;;;36.10;17.80;;;1.10;99.90;;;;;;5056208;28;20463;-83
2021/01/05 08:25:44;;;;;;;29.63;16.40;;;1.20;99.90;;;;;;5056217;28;20452;-86
2021/01/05 08:28:11;;;;;;;31.00;16.40;;;1.20;99.90;;;;;;5056176;28;20829;-83
2021/01/05 08:30:38;;;;;;;26.43;16.93;;;1.20;99.90;;;;;;5055977;28;20449;-81
2021/01/05 08:33:07;;;;;;;26.23;15.20;;;1.30;99.90;;;;;;5055373;28;20456;-81
2021/01/05 08:35:34;;;;;;;28.80;15.90;;;1.20;99.90;;;;;;5055949;28;20473;-89
2021/01/05 08:38:00;;;;;;;26.20;15.30;;;1.20;99.90;;;;;;5057205;28;20452;-91
2021/01/05 08:40:28;;;;;;;26.23;15.43;;;1.20;99.90;;;;;;5056769;28;20508;-88
2021/01/05 08:42:55;;;;;;;23.83;13.87;;;1.20;99.90;;;;;;5056780;28;20455;-90
2021/01/05 08:45:21;;;;;;;23.57;14.10;;;1.40;99.90;;;;;;5056631;28;20442;-90
2021/01/05 08:47:48;;;;;;;27.60;14.47;;;1.30;99.90;;;;;;5056702;28;20444;-88
2021/01/05 08:50:18;;;;;;;24.30;14.57;;;1.20;99.90;;;;;;5056285;28;20485;-88
2021/01/05 08:52:45;;;;;;;22.13;15.07;;;;;;;;;;5052399;28;20853;-87
2021/01/05 08:55:12;;;;;;;24.60;13.60;;;1.20;99.90;;;;;;5055767;28;20451;-84
2021/01/05 08:57:38;;;;;;;24.50;13.73;;;1.20;99.90;;;;;;5055478;28;20446;-83
2021/01/05 09:00:06;;;;;;;20.70;13.37;;;1.20;99.90;;;;;;5055445;28;20446;-83
2021/01/05 09:02:32;;;;;;;21.63;13.50;;;1.20;99.90;;;;;;5055494;28;20962;-83
2021/01/05 09:04:59;;;;;;;23.60;14.07;;;1.20;99.90;;;;;;5054245;28;21011;-83
2021/01/05 09:07:26;;;;;;;22.33;14.90;;;1.20;99.90;;;;;;5055342;28;20942;-83
2021/01/05 09:09:52;;;;;;;20.80;13.07;;;1.30;99.90;;;;;;5055446;28;20454;-86
2021/01/05 09:12:18;;;;;;;19.10;13.30;;;1.30;99.90;;;;;;5055132;28;20474;-82
2021/01/05 09:14:44;;;;;;;22.03;13.87;;;1.30;99.90;;;;;;5055371;28;20455;-84
2021/01/05 09:17:11;;;;;;;21.50;13.23;;;;;;;;;;5055192;28;20460;-83
2021/01/05 09:19:38;;;;;;;16.67;11.70;;;1.30;99.90;;;;;;5053963;28;20500;-83
2021/01/05 09:22:05;;;;;;;19.60;12.67;;;1.40;99.90;;;;;;5054989;28;21063;-83
2021/01/05 09:24:32;;;;;;;21.93;12.90;;;1.30;99.90;;;;;;5054751;28;20954;-85
2021/01/05 09:26:58;;;;;;;23.53;14.03;;;1.40;99.90;;;;;;5054102;28;20465;-84
2021/01/05 09:29:25;;;;;;;23.53;13.60;;;1.30;99.90;;;;;;5055053;28;20466;-84
2021/01/05 09:31:53;;;;;;;23.57;12.87;;;1.30;99.90;;;;;;5055035;28;20447;-85
2021/01/05 09:34:22;;;;;;;22.97;15.37;;;1.40;99.90;;;;;;5053735;28;20481;-86
2021/01/05 09:36:48;;;;;;;19.10;12.70;;;3.00;99.90;;;;;;5054863;28;20451;-85
2021/01/05 09:39:16;;;;;;;20.93;14.00;;;2.50;99.90;;;;;;5055064;28;20451;-85
2021/01/05 09:41:46;;;;;;;20.07;13.20;;;2.00;99.90;;;;;;5054687;28;20490;-85
2021/01/05 09:44:13;;;;;;;20.20;13.70;;;1.90;99.90;;;;;;5055014;28;20791;-86
2021/01/05 09:46:40;;;;;;;23.43;13.33;;;1.80;99.90;;;;;;5054933;28;20450;-84
2021/01/05 09:49:06;;;;;;;19.83;13.43;;;1.80;99.90;;;;;;5053462;28;20834;-84
2021/01/05 09:51:33;;;;;;;19.00;12.53;;;1.60;99.90;;;;;;5054496;28;20486;-84
2021/01/05 09:53:59;;;;;;;22.87;14.20;;;;;;;;;;5054582;28;20458;-84
2021/01/05 09:56:26;;;;;;;21.50;12.70;;;1.50;99.90;;;;;;5054684;28;20459;-85
2021/01/05 09:58:53;;;;;;;20.00;13.10;;;1.50;99.90;;;;;;5054739;28;20456;-85
2021/01/05 10:01:24;;;;;;;24.13;15.03;;;1.50;99.90;;;;;;5054292;28;20494;-84
2021/01/05 10:03:50;;;;;;;23.17;13.87;;;1.60;99.90;;;;;;5053108;28;20447;-84
2021/01/05 10:06:17;;;;;;;21.20;14.23;;;1.60;99.90;;;;;;5054425;28;20477;-83
2021/01/05 10:08:43;;;;;;;26.00;14.83;;;1.50;99.90;;;;;;5054500;28;20450;-85
2021/01/05 10:11:10;;;;;;;21.73;15.20;;;1.50;99.90;;;;;;5054231;28;20935;-86
2021/01/05 10:13:36;;;;;;;19.87;13.43;;;1.50;99.90;;;;;;5054253;28;20812;-86
2021/01/05 10:16:03;;;;;;;18.53;13.07;;;1.50;99.90;;;;;;5054207;28;20454;-84
2021/01/05 10:18:29;;;;;;;19.90;13.50;;;1.50;99.90;;;;;;5053209;28;20461;-93
2021/01/05 10:20:56;;;;;;;20.93;13.10;;;2.00;99.90;;;;;;5054298;28;20847;-87
2021/01/05 10:23:22;;;;;;;21.40;13.90;;;2.10;99.90;;;;;;5054211;28;20462;-85
2021/01/05 10:25:48;;;;;;;21.80;14.80;;;1.90;99.90;;;;;;5049852;28;20449;-85
2021/01/05 10:28:15;;;;;;;22.33;14.53;;;1.80;99.90;;;;;;5053932;28;20936;-87
2021/01/05 10:30:41;;;;;;;26.10;15.13;;;1.80;99.90;;;;;;5053892;28;20455;-86
2021/01/05 10:33:08;;;;;;;22.77;14.57;;;2.60;99.90;;;;;;5053406;28;20451;-86
2021/01/05 10:35:34;;;;;;;22.50;15.10;;;1.70;99.90;;;;;;5050662;28;20447;-85
2021/01/05 10:38:01;;;;;;;21.83;14.40;;;1.60;99.90;;;;;;5053477;28;20455;-85
2021/01/05 10:40:27;;;;;;;23.50;15.53;;;1.60;99.90;;;;;;5053590;28;20798;-84
2021/01/05 10:42:53;;;;;;;21.90;14.57;;;1.60;99.90;;;;;;5053687;28;20450;-86
2021/01/05 10:45:22;;;;;;;17.77;12.93;;;1.60;99.90;;;;;;5053716;28;20458;-85
2021/01/05 10:47:49;;;;;;;30.40;17.70;;;1.80;99.90;;;;;;5053641;28;20791;-86
2021/01/05 10:50:19;;;;;;;24.90;15.03;;;1.80;99.90;;;;;;5058946;28;20450;-84
2021/01/05 10:52:46;;;;;;;23.63;14.83;;;1.90;99.90;;;;;;5073453;28;20580;-84
2021/01/05 10:55:13;;;;;;;22.27;14.70;;;1.70;99.90;;;;;;5073649;28;20809;-84
2021/01/05 10:57:40;;;;;;;25.37;15.50;;;1.70;99.90;;;;;;5074098;28;20450;-84
2021/01/05 11:00:07;;;;;;;24.97;14.90;;;1.80;99.90;;;;;;5073381;28;20781;-84
2021/01/05 11:02:33;;;;;;;22.03;14.07;;;1.70;99.90;;;;;;5073294;28;20497;-83
2021/01/05 11:05:00;;;;;;;25.10;15.93;;;2.60;99.90;;;;;;5069789;28;20677;-83
2021/01/05 11:07:27;;;;;;;24.40;15.30;;;1.80;99.90;;;;;;5072998;28;20454;-84
2021/01/05 11:09:54;;;;;;;23.50;14.70;;;1.80;99.90;;;;;;5073086;28;20464;-84
2021/01/05 11:12:22;;;;;;;23.33;15.50;;;1.90;99.90;;;;;;5073079;28;20438;-85
2021/01/05 11:14:48;;;;;;;24.00;14.67;;;1.90;99.90;;;;;;5072933;28;20455;-83
2021/01/05 11:17:15;;;;;;;22.20;14.30;;;1.90;99.90;;;;;;5072496;28;20445;-84
2021/01/05 11:19:42;;;;;;;24.80;14.50;;;1.90;99.90;;;;;;5071241;28;20457;-84
2021/01/05 11:22:13;;;;;;;22.23;13.60;;;1.90;99.90;;;;;;5072681;28;20496;-83
2021/01/05 11:24:40;;;;;;;21.90;14.33;;;1.90;99.90;;;;;;5072794;28;20459;-84
2021/01/05 11:27:07;;;;;;;21.10;13.40;;;1.90;99.90;;;;;;5072582;28;20453;-84
2021/01/05 11:29:35;;;;;;;23.60;14.67;;;2.00;99.90;;;;;;5072553;28;20446;-83
2021/01/05 11:32:03;;;;;;;23.53;13.80;;;2.00;99.90;;;;;;5072440;28;20480;-84
2021/01/05 11:34:30;;;;;;;20.67;14.17;;;2.00;99.90;;;;;;5071361;28;20555;-84
2021/01/05 11:37:01;;;;;;;24.00;14.43;;;2.00;99.90;;;;;;5072682;28;20459;-84
2021/01/05 11:39:27;;;;;;;22.63;14.53;;;2.00;99.90;;;;;;5073576;28;20448;-85
2021/01/05 11:41:58;;;;;;;26.50;16.60;;;2.00;99.90;;;;;;5072452;28;20501;-84
2021/01/05 11:44:25;;;;;;;24.30;14.37;;;2.00;99.90;;;;;;5072509;28;20472;-84
2021/01/05 11:46:51;;;;;;;25.70;17.67;;;1.90;99.90;;;;;;5072445;28;20458;-84
2021/01/05 11:49:18;;;;;;;28.07;17.77;;;1.90;99.90;;;;;;5073117;28;20522;-84
2021/01/05 11:51:44;;;;;;;26.70;16.03;;;2.00;99.90;;;;;;5076321;28;20480;-84
2021/01/05 11:54:10;;;;;;;25.90;16.20;;;1.90;99.90;;;;;;5076614;28;20494;-84
2021/01/05 11:56:37;;;;;;;22.10;14.97;;;2.00;99.90;;;;;;5076493;28;20453;-84
2021/01/05 11:59:04;;;;;;;19.83;13.40;;;2.00;99.90;;;;;;5076342;28;20826;-83
2021/01/05 12:01:35;;;;;;;24.20;14.23;;;2.00;99.90;;;;;;5076300;28;20496;-86
2021/01/05 12:04:03;;;;;;;25.70;16.30;;;1.90;99.90;;;;;;5075124;28;20450;-83
2021/01/05 12:06:29;;;;;;;30.13;16.03;;;1.90;99.90;;;;;;5076340;28;20465;-83
2021/01/05 12:08:55;;;;;;;25.40;16.13;;;1.90;99.90;;;;;;5076693;28;20472;-86
2021/01/05 12:11:24;;;;;;;23.43;14.63;;;1.90;99.90;;;;;;5076565;28;20445;-84
2021/01/05 12:13:51;;;;;;;29.60;15.43;;;1.90;99.90;;;;;;5076404;28;20941;-85
2021/01/05 12:16:29;;;;;;;23.53;15.30;;;1.90;99.90;;;;;;5076505;28;20504;-84
2021/01/05 12:18:57;;;;;;;23.97;15.33;;;1.80;99.90;;;;;;5075251;28;20442;-83
2021/01/05 12:21:25;;;;;;;23.83;14.10;;;1.90;99.90;;;;;;5076304;28;20496;-84
2021/01/05 12:23:51;;;;;;;23.63;16.13;;;1.90;99.90;;;;;;5076282;28;20442;-83
2021/01/05 12:26:29;;;;;;;25.87;15.13;;;1.90;99.90;;;;;;5076117;28;20459;-83
2021/01/05 12:28:56;;;;;;;23.00;13.80;;;1.90;99.90;;;;;;5076254;28;20545;-85
2021/01/05 12:31:23;;;;;;;29.13;15.93;;;1.80;99.90;;;;;;5076051;28;20459;-85
2021/01/05 12:33:50;;;;;;;21.00;14.10;;;1.90;99.90;;;;;;5075041;28;20986;-84
2021/01/05 12:36:24;;;;;;;27.13;14.10;;;1.80;99.90;;;;;;5076193;28;20453;-84
2021/01/05 12:38:51;;;;;;;24.77;15.40;;;1.90;99.90;;;;;;5072941;28;20959;-85
2021/01/05 12:41:17;;;;;;;25.80;15.53;;;1.60;99.90;;;;;;5074349;28;20555;-85
2021/01/05 12:43:43;;;;;;;28.60;16.50;;;1.70;99.90;;;;;;5054597;28;20439;-85
2021/01/05 12:46:10;;;;;;;24.03;15.57;;;1.80;99.90;;;;;;5055325;28;20451;-85
2021/01/05 12:48:36;;;;;;;24.37;15.57;;;1.70;99.90;;;;;;5054412;28;20438;-84
2021/01/05 12:51:04;;;;;;;25.57;16.03;;;1.80;99.90;;;;;;5055611;28;20490;-90
2021/01/05 12:53:30;;;;;;;26.83;14.97;;;1.70;99.90;;;;;;5056221;28;20447;-91